Time;durP1;ratioP1;P1;durP2;ratioP2;P2;SDS_P1;SDS_P2;PMS_P1;PMS_P2;Temp;Humidity;BMP_temperature;BMP_pressure;BME280_temperature;BME280_humidity;BME280_pressure;Samples;Min_cycle;Max_cycle;Signal;HPM_P1;HPM_P2
2023/01/10 00:01:27;;;;;;;2.13;1.92;;;;;;;;;;5033957;28;20033;-72
2023/01/10 00:03:53;;;;;;;3.85;2.22;;;;;;;;;;5034063;28;20033;-71
2023/01/10 00:06:19;;;;;;;2.88;2.22;;;;;;;;;;5035293;28;20049;-74
2023/01/10 00:08:45;;;;;;;6.85;2.25;;;;;;;;;;5053321;28;20087;-73
2023/01/10 00:13:56;;;;;;;5.38;2.22;;;;;;;;;;5053614;28;20597;-72
2023/01/10 00:16:22;;;;;;;2.55;2.33;;;;;;;;;;5035712;28;20025;-73
2023/01/10 00:18:48;;;;;;;5.10;2.33;;;;;;;;;;5053247;28;20068;-73
2023/01/10 00:21:14;;;;;;;4.40;2.42;;;;;;;;;;5053370;28;20049;-74
2023/01/10 00:23:42;;;;;;;5.68;2.80;;;;;;;;;;5053195;28;20055;-72
2023/01/10 00:26:08;;;;;;;6.00;3.83;;;;;;;;;;5035440;28;20057;-73
2023/01/10 00:28:34;;;;;;;4.75;2.10;;;;;;;;;;5053248;28;20033;-73
2023/01/10 00:31:01;;;;;;;5.80;3.17;;;;;;;;;;5053434;28;20025;-74
2023/01/10 00:33:30;;;;;;;4.63;2.42;;;;;;;;;;5053403;28;20079;-71
2023/01/10 00:35:56;;;;;;;4.72;2.17;;;;;;;;;;5052997;28;20483;-71
2023/01/10 00:38:22;;;;;;;5.57;2.90;;;;;;;;;;5034552;28;20088;-73
2023/01/10 00:40:49;;;;;;;4.32;2.20;;;;;;;;;;5033251;28;20030;-71
2023/01/10 00:46:01;;;;;;;3.90;2.08;;;;;;;;;;5039414;28;20037;-73
2023/01/10 00:48:27;;;;;;;4.18;2.00;;;;;;;;;;5033683;28;20022;-72
2023/01/10 00:50:53;;;;;;;5.35;2.83;;;;;;;;;;5033665;28;20025;-73
2023/01/10 00:53:19;;;;;;;10.00;3.55;;;;;;;;;;5034827;28;20487;-72
2023/01/10 00:55:45;;;;;;;3.25;2.15;;;;;;;;;;5048894;28;20033;-73
2023/01/10 00:58:13;;;;;;;3.00;1.88;;;;;;;;;;5046693;28;20446;-72
2023/01/10 01:00:39;;;;;;;4.53;2.17;;;;;;;;;;5040727;28;20060;-72
2023/01/10 01:03:05;;;;;;;2.47;2.20;;;;;;;;;;5040366;28;20509;-72
2023/01/10 01:05:31;;;;;;;4.88;2.53;;;;;;;;;;5029669;28;20540;-72
2023/01/10 01:07:57;;;;;;;3.15;1.90;;;;;;;;;;5047505;28;20086;-72
2023/01/10 01:10:26;;;;;;;5.88;3.55;;;;;;;;;;5052922;28;20025;-71
2023/01/10 01:12:56;;;;;;;2.42;2.22;;;;;;;;;;5034467;28;20086;-70
2023/01/10 01:15:22;;;;;;;7.10;3.05;;;;;;;;;;5041815;28;20035;-72
2023/01/10 01:17:48;;;;;;;5.45;2.78;;;;;;;;;;5015852;28;20037;-73
2023/01/10 01:20:14;;;;;;;3.08;2.20;;;;;;;;;;5031573;28;20029;-72
2023/01/10 01:22:41;;;;;;;6.95;3.58;;;;;;;;;;5034065;28;20025;-72
2023/01/10 01:25:07;;;;;;;4.22;2.38;;;;;;;;;;5031926;28;20037;-71
2023/01/10 01:27:37;;;;;;;2.53;2.25;;;;;;;;;;5030268;28;20022;-72
2023/01/10 01:30:03;;;;;;;5.60;2.17;;;;;;;;;;5032278;28;20427;-74
2023/01/10 01:32:29;;;;;;;3.83;1.98;;;;;;;;;;5031837;28;20025;-75
2023/01/10 01:34:55;;;;;;;3.78;2.33;;;;;;;;;;5032388;28;20036;-74
2023/01/10 01:37:21;;;;;;;4.28;2.42;;;;;;;;;;5017735;28;20032;-74
2023/01/10 01:39:48;;;;;;;4.95;2.35;;;;;;;;;;5039831;28;20024;-74
2023/01/10 01:42:30;;;;;;;6.00;2.25;;;;;;;;;;5034412;28;20021;-73
2023/01/10 01:45:05;;;;;;;4.32;2.38;;;;;;;;;;5031536;28;20021;-74
2023/01/10 01:47:31;;;;;;;3.97;2.83;;;;;;;;;;5032150;28;20037;-75
2023/01/10 01:49:57;;;;;;;5.20;2.83;;;;;;;;;;5032491;28;20041;-75
2023/01/10 01:52:26;;;;;;;6.65;3.65;;;;;;;;;;5031395;28;20468;-75
2023/01/10 01:54:55;;;;;;;5.82;2.85;;;;;;;;;;5031823;28;20021;-75
2023/01/10 01:57:24;;;;;;;9.70;4.43;;;;;;;;;;5032235;28;20488;-74
2023/01/10 01:59:52;;;;;;;4.88;2.92;;;;;;;;;;5033518;28;20029;-73
2023/01/10 02:02:19;;;;;;;4.60;2.95;;;;;;;;;;5036468;28;20029;-74
2023/01/10 02:04:48;;;;;;;6.45;4.00;;;;;;;;;;5038716;28;20085;-74
2023/01/10 02:07:14;;;;;;;7.47;3.08;;;;;;;;;;5055948;22;23456;-77
2023/01/10 02:09:43;;;;;;;6.35;3.42;;;;;;;;;;5053483;28;20032;-74
2023/01/10 02:12:09;;;;;;;8.38;3.88;;;;;;;;;;5070134;28;20082;-74
2023/01/10 02:14:36;;;;;;;7.93;4.40;;;;;;;;;;5067220;28;20021;-74
2023/01/10 02:17:02;;;;;;;5.25;3.42;;;;;;;;;;5042101;28;20437;-75
2023/01/10 02:19:31;;;;;;;7.00;3.33;;;;;;;;;;5047841;28;20085;-74
2023/01/10 02:22:28;;;;;;;6.25;3.17;;;;;;;;;;5055573;28;20495;-75
2023/01/10 02:24:57;;;;;;;6.20;3.55;;;;;;;;;;5050659;28;20033;-76
2023/01/10 02:27:43;;;;;;;6.05;3.15;;;;;;;;;;5060116;28;20491;-75
2023/01/10 02:30:19;;;;;;;5.53;3.53;;;;;;;;;;5070868;28;20083;-74
2023/01/10 02:32:53;;;;;;;5.45;3.72;;;;;;;;;;5071052;28;20025;-75
2023/01/10 02:35:22;;;;;;;4.57;3.20;;;;;;;;;;5070862;28;20024;-75
2023/01/10 02:37:48;;;;;;;8.63;3.80;;;;;;;;;;5053093;28;20024;-75
2023/01/10 02:40:30;;;;;;;6.13;3.20;;;;;;;;;;5072624;28;20047;-75
2023/01/10 02:43:00;;;;;;;6.18;3.17;;;;;;;;;;5071419;28;20033;-75
2023/01/10 02:45:29;;;;;;;5.00;3.33;;;;;;;;;;5072518;28;20391;-74
2023/01/10 02:47:55;;;;;;;9.15;3.95;;;;;;;;;;5055862;28;20048;-75
2023/01/10 02:50:40;;;;;;;5.60;3.40;;;;;;;;;;5048060;28;20021;-75
2023/01/10 02:53:10;;;;;;;6.50;3.25;;;;;;;;;;5041300;28;20035;-75
2023/01/10 02:56:11;;;;;;;9.10;4.03;;;;;;;;;;5054093;28;20032;-75
2023/01/10 02:58:56;;;;;;;8.98;3.97;;;;;;;;;;4970299;28;20054;-75
2023/01/10 03:01:34;;;;;;;8.00;4.35;;;;;;;;;;5063336;28;20056;-75
2023/01/10 03:04:04;;;;;;;6.15;3.92;;;;;;;;;;5072292;28;20025;-75
2023/01/10 03:06:35;;;;;;;8.90;4.40;;;;;;;;;;5076657;28;20017;-75
2023/01/10 03:09:12;;;;;;;6.40;4.30;;;;;;;;;;5080867;28;20044;-76
2023/01/10 03:11:38;;;;;;;9.05;4.43;;;;;;;;;;5080962;28;20017;-74
2023/01/10 03:14:06;;;;;;;6.50;4.45;;;;;;;;;;5079968;28;20103;-76
2023/01/10 03:16:33;;;;;;;7.88;4.30;;;;;;;;;;5060321;28;20021;-76
2023/01/10 03:19:01;;;;;;;9.48;4.75;;;;;;;;;;5049621;28;20047;-76
2023/01/10 03:21:28;;;;;;;9.77;4.50;;;;;;;;;;5071826;28;20037;-75
2023/01/10 03:23:55;;;;;;;13.15;5.10;;;;;;;;;;5078936;28;20082;-74
2023/01/10 03:26:28;;;;;;;9.75;5.10;;;;;;;;;;5087540;28;20024;-75
2023/01/10 03:28:57;;;;;;;8.73;4.82;;;;;;;;;;5086530;28;20021;-75
2023/01/10 03:31:25;;;;;;;7.30;4.85;;;;;;;;;;5065218;28;20028;-75
2023/01/10 03:33:51;;;;;;;10.68;5.25;;;;;;;;;;5080901;28;20032;-76
2023/01/10 03:36:32;;;;;;;7.40;4.50;;;;;;;;;;5071041;28;20021;-76
2023/01/10 03:39:04;;;;;;;10.02;4.78;;;;;;;;;;5069754;28;20025;-76
2023/01/10 03:41:48;;;;;;;7.45;4.22;;;;;;;;;;5064205;28;20059;-76
2023/01/10 03:47:05;;;;;;;7.07;5.22;;;;;;;;;;5074033;28;20032;-74
2023/01/10 03:49:33;;;;;;;7.45;4.47;;;;;;;;;;5063165;28;20025;-75
2023/01/10 03:51:59;;;;;;;9.10;4.80;;;;;;;;;;5054921;28;20041;-75
2023/01/10 03:54:25;;;;;;;6.90;4.88;;;;;;;;;;5073475;28;20029;-75
2023/01/10 03:56:51;;;;;;;8.75;4.95;;;;;;;;;;5074423;28;20386;-76
2023/01/10 03:59:20;;;;;;;8.23;4.63;;;;;;;;;;5073674;28;20394;-75
2023/01/10 04:01:46;;;;;;;9.38;5.32;;;;;;;;;;5073774;28;20482;-75
2023/01/10 04:04:12;;;;;;;8.40;4.85;;;;;;;;;;5055911;28;20460;-75
2023/01/10 04:06:38;;;;;;;7.07;4.40;;;;;;;;;;5070050;28;20100;-75
2023/01/10 04:09:04;;;;;;;13.07;5.93;;;;;;;;;;5061246;28;20059;-75
2023/01/10 04:11:30;;;;;;;7.78;4.75;;;;;;;;;;5073642;28;20074;-76
2023/01/10 04:13:56;;;;;;;10.15;5.43;;;;;;;;;;5073081;28;20562;-76
2023/01/10 04:16:22;;;;;;;10.20;4.68;;;;;;;;;;5037115;28;20116;-75
2023/01/10 04:18:48;;;;;;;8.70;4.80;;;;;;;;;;5058592;28;20029;-75
2023/01/10 04:21:14;;;;;;;7.55;4.55;;;;;;;;;;5073413;28;20379;-76
2023/01/10 04:23:40;;;;;;;6.90;4.03;;;;;;;;;;5073498;28;20054;-76
2023/01/10 04:26:06;;;;;;;7.45;4.80;;;;;;;;;;5073599;28;20103;-75
2023/01/10 04:28:32;;;;;;;9.32;5.45;;;;;;;;;;5072665;28;20100;-75
2023/01/10 04:30:58;;;;;;;5.65;4.57;;;;;;;;;;5073488;28;20024;-75
2023/01/10 04:33:24;;;;;;;8.35;4.63;;;;;;;;;;5073316;28;20059;-74
2023/01/10 04:35:51;;;;;;;11.90;5.38;;;;;;;;;;5072374;28;20039;-74
2023/01/10 04:38:17;;;;;;;11.30;5.70;;;;;;;;;;5037045;28;20024;-75
2023/01/10 04:40:43;;;;;;;11.32;4.80;;;;;;;;;;5058220;28;20017;-75
2023/01/10 04:43:10;;;;;;;10.27;6.00;;;;;;;;;;5073125;28;20103;-75
2023/01/10 04:45:36;;;;;;;9.68;5.75;;;;;;;;;;5073231;28;20032;-74
2023/01/10 04:48:03;;;;;;;12.82;6.40;;;;;;;;;;5054631;28;20020;-75
2023/01/10 04:50:29;;;;;;;8.27;4.93;;;;;;;;;;5053690;28;20402;-75
2023/01/10 04:52:55;;;;;;;9.15;5.30;;;;;;;;;;5059335;28;20112;-75
2023/01/10 04:55:21;;;;;;;11.27;5.45;;;;;;;;;;5073175;28;20059;-75
2023/01/10 04:57:47;;;;;;;8.27;5.50;;;;;;;;;;5072142;28;20502;-75
2023/01/10 05:00:13;;;;;;;6.70;4.63;;;;;;;;;;5072412;28;20028;-75
2023/01/10 05:02:42;;;;;;;15.07;5.93;;;;;;;;;;5057159;28;20024;-75
2023/01/10 05:05:09;;;;;;;9.05;5.20;;;;;;;;;;5072775;28;20020;-74
2023/01/10 05:07:36;;;;;;;11.13;5.72;;;;;;;;;;5054182;28;20020;-75
2023/01/10 05:10:02;;;;;;;10.00;5.35;;;;;;;;;;5057292;28;20025;-75
2023/01/10 05:12:28;;;;;;;10.93;5.25;;;;;;;;;;5072146;28;20416;-75
2023/01/10 05:14:54;;;;;;;9.43;5.45;;;;;;;;;;5066865;28;20028;-75
2023/01/10 05:17:20;;;;;;;8.63;5.45;;;;;;;;;;5044023;28;20025;-75
2023/01/10 05:19:46;;;;;;;10.68;5.53;;;;;;;;;;5054694;28;20406;-75
2023/01/10 05:22:12;;;;;;;10.32;5.88;;;;;;;;;;5054081;28;20104;-75
2023/01/10 05:24:38;;;;;;;12.48;5.82;;;;;;;;;;5038897;28;20019;-75
2023/01/10 05:27:04;;;;;;;8.25;5.20;;;;;;;;;;5054780;28;20165;-74
2023/01/10 05:29:30;;;;;;;11.50;6.03;;;;;;;;;;5073001;28;20046;-76
2023/01/10 05:31:56;;;;;;;11.23;5.90;;;;;;;;;;5054812;28;20137;-76
2023/01/10 05:34:22;;;;;;;7.20;5.32;;;;;;;;;;5055769;28;20498;-75
2023/01/10 05:36:48;;;;;;;10.45;6.32;;;;;;;;;;5072834;28;20088;-75
2023/01/10 05:39:14;;;;;;;11.25;5.60;;;;;;;;;;5072093;28;20418;-75
2023/01/10 05:41:40;;;;;;;7.80;5.57;;;;;;;;;;5072175;28;20386;-76
2023/01/10 05:44:06;;;;;;;13.20;5.90;;;;;;;;;;5053941;28;20070;-76
2023/01/10 05:46:32;;;;;;;12.55;5.32;;;;;;;;;;5070746;28;20035;-76
2023/01/10 05:48:58;;;;;;;11.80;5.70;;;;;;;;;;5071364;28;20020;-75
2023/01/10 05:51:24;;;;;;;10.50;6.68;;;;;;;;;;5061284;28;20024;-75
2023/01/10 05:53:51;;;;;;;11.32;6.85;;;;;;;;;;5065833;28;20501;-75
2023/01/10 05:56:17;;;;;;;11.68;6.40;;;;;;;;;;5071795;28;20119;-76
2023/01/10 05:58:43;;;;;;;13.50;6.70;;;;;;;;;;5071251;28;20017;-75
2023/01/10 06:01:09;;;;;;;9.73;6.28;;;;;;;;;;5071586;28;20075;-75
2023/01/10 06:03:35;;;;;;;12.50;7.63;;;;;;;;;;5071631;28;20108;-75
2023/01/10 06:06:04;;;;;;;11.93;6.97;;;;;;;;;;5054902;28;20016;-75
2023/01/10 06:08:30;;;;;;;10.48;6.82;;;;;;;;;;5068805;28;20454;-74
2023/01/10 06:10:56;;;;;;;12.20;6.32;;;;;;;;;;5039892;28;20069;-75
2023/01/10 06:13:23;;;;;;;10.55;5.85;;;;;;;;;;5061805;28;20025;-76
2023/01/10 06:15:49;;;;;;;9.05;5.57;;;;;;;;;;5065556;28;20016;-75
2023/01/10 06:18:15;;;;;;;8.35;5.85;;;;;;;;;;5070737;28;20044;-74
2023/01/10 06:20:42;;;;;;;10.45;5.90;;;;;;;;;;5071254;28;20089;-75
2023/01/10 06:23:08;;;;;;;8.15;5.60;;;;;;;;;;5070990;28;20033;-74
2023/01/10 06:25:36;;;;;;;10.93;6.20;;;;;;;;;;5059003;28;20021;-75
2023/01/10 06:28:02;;;;;;;9.68;5.80;;;;;;;;;;5067044;28;20017;-74
2023/01/10 06:30:29;;;;;;;8.52;5.47;;;;;;;;;;5052127;28;20032;-76
2023/01/10 06:33:00;;;;;;;8.43;5.82;;;;;;;;;;5058316;28;20066;-75
2023/01/10 06:35:26;;;;;;;9.43;5.60;;;;;;;;;;5053481;28;20028;-75
2023/01/10 06:37:52;;;;;;;10.20;5.95;;;;;;;;;;5070946;28;20504;-76
2023/01/10 06:40:18;;;;;;;9.32;6.18;;;;;;;;;;5070003;28;20052;-75
2023/01/10 06:42:44;;;;;;;11.18;6.93;;;;;;;;;;5056201;28;20494;-75
2023/01/10 06:45:10;;;;;;;10.32;5.35;;;;;;;;;;5063223;28;20036;-75
2023/01/10 06:47:37;;;;;;;10.68;5.90;;;;;;;;;;5063396;28;20048;-76
2023/01/10 06:50:04;;;;;;;10.50;5.72;;;;;;;;;;5055516;28;20113;-75
2023/01/10 06:52:30;;;;;;;11.57;6.55;;;;;;;;;;5071204;28;20020;-76
2023/01/10 06:54:56;;;;;;;11.13;6.35;;;;;;;;;;5064648;28;20483;-75
2023/01/10 06:57:22;;;;;;;10.57;6.05;;;;;;;;;;5061258;28;20150;-75
2023/01/10 06:59:48;;;;;;;11.18;6.40;;;;;;;;;;5061565;28;20121;-74
2023/01/10 07:02:14;;;;;;;12.50;6.88;;;;;;;;;;5053733;28;20028;-76
2023/01/10 07:04:40;;;;;;;11.55;6.68;;;;;;;;;;5059653;28;20385;-76
2023/01/10 07:07:06;;;;;;;9.65;5.70;;;;;;;;;;5050637;28;22310;-73
2023/01/10 07:09:32;;;;;;;8.70;5.88;;;;;;;;;;5064431;28;20393;-75
2023/01/10 07:11:58;;;;;;;12.27;6.38;;;;;;;;;;5054745;28;20105;-73
2023/01/10 07:14:24;;;;;;;11.70;6.85;;;;;;;;;;5071153;28;20025;-75
2023/01/10 07:16:50;;;;;;;11.82;7.13;;;;;;;;;;5059043;28;20021;-73
2023/01/10 07:19:17;;;;;;;11.40;6.95;;;;;;;;;;5064553;28;20021;-75
2023/01/10 07:21:43;;;;;;;12.40;7.15;;;;;;;;;;5067589;28;20450;-76
2023/01/10 07:24:09;;;;;;;9.52;6.63;;;;;;;;;;5074091;28;20393;-73
2023/01/10 07:26:35;;;;;;;9.93;6.25;;;;;;;;;;5071054;28;20024;-77
2023/01/10 07:29:01;;;;;;;10.35;6.88;;;;;;;;;;5043404;28;20046;-77
2023/01/10 07:31:27;;;;;;;10.35;5.75;;;;;;;;;;5074912;28;20028;-75
2023/01/10 07:33:54;;;;;;;8.25;6.13;;;;;;;;;;5074354;28;20494;-76
2023/01/10 07:36:20;;;;;;;12.07;6.63;;;;;;;;;;5060902;28;20387;-75
2023/01/10 07:38:46;;;;;;;9.60;6.63;;;;;;;;;;5058844;28;20089;-76
2023/01/10 07:41:12;;;;;;;9.85;6.22;;;;;;;;;;5065708;28;20029;-75
2023/01/10 07:43:38;;;;;;;12.32;6.63;;;;;;;;;;5053869;28;20089;-75
2023/01/10 07:46:09;;;;;;;9.02;6.03;;;;;;;;;;5062683;28;20028;-75
2023/01/10 07:48:36;;;;;;;8.05;6.38;;;;;;;;;;5073181;28;20075;-76
2023/01/10 07:51:02;;;;;;;8.43;6.18;;;;;;;;;;5068978;28;20050;-76
2023/01/10 07:53:28;;;;;;;12.02;7.05;;;;;;;;;;5071082;28;20107;-77
2023/01/10 07:55:58;;;;;;;12.65;7.10;;;;;;;;;;5074359;28;20087;-76
2023/01/10 07:58:24;;;;;;;9.65;6.53;;;;;;;;;;5056694;28;20517;-75
2023/01/10 08:00:50;;;;;;;11.15;6.70;;;;;;;;;;5056063;28;20017;-75
2023/01/10 08:03:16;;;;;;;13.20;6.68;;;;;;;;;;5074161;28;20095;-75
2023/01/10 08:05:43;;;;;;;13.77;7.40;;;;;;;;;;5062283;28;20032;-75
2023/01/10 08:08:10;;;;;;;11.45;7.28;;;;;;;;;;5066699;22;20133;-70
2023/01/10 08:10:36;;;;;;;9.68;6.65;;;;;;;;;;5051944;28;20025;-73
2023/01/10 08:13:03;;;;;;;7.93;5.75;;;;;;;;;;5053759;28;20044;-72
2023/01/10 08:15:29;;;;;;;11.68;6.53;;;;;;;;;;5053597;28;20029;-73
2023/01/10 08:17:55;;;;;;;11.45;6.63;;;;;;;;;;5053496;28;20045;-72
2023/01/10 08:20:21;;;;;;;11.02;5.68;;;;;;;;;;5035657;28;20490;-73
2023/01/10 08:22:47;;;;;;;13.10;6.63;;;;;;;;;;5053521;28;20428;-72
2023/01/10 08:25:13;;;;;;;9.43;6.70;;;;;;;;;;5050401;28;20040;-74
2023/01/10 08:27:39;;;;;;;8.02;5.93;;;;;;;;;;5049787;28;20017;-72
2023/01/10 08:30:05;;;;;;;9.52;5.95;;;;;;;;;;5054965;28;20032;-73
2023/01/10 08:32:31;;;;;;;10.13;5.88;;;;;;;;;;5035381;28;20055;-73
2023/01/10 08:34:57;;;;;;;9.57;5.75;;;;;;;;;;5056911;28;20032;-73
2023/01/10 08:37:23;;;;;;;11.15;5.97;;;;;;;;;;5073146;28;20021;-73
2023/01/10 08:39:49;;;;;;;10.73;5.80;;;;;;;;;;5073088;28;20033;-72
2023/01/10 08:42:15;;;;;;;9.50;5.82;;;;;;;;;;5073065;28;20173;-74
2023/01/10 08:44:42;;;;;;;8.57;5.18;;;;;;;;;;5057390;28;20391;-73
2023/01/10 08:47:08;;;;;;;7.35;5.28;;;;;;;;;;5053465;28;20100;-72
2023/01/10 08:49:34;;;;;;;8.38;5.22;;;;;;;;;;5053972;28;20032;-73
2023/01/10 08:52:01;;;;;;;9.57;5.65;;;;;;;;;;5054469;28;20021;-74
2023/01/10 08:54:27;;;;;;;7.97;5.15;;;;;;;;;;5035248;28;20048;-73
2023/01/10 08:56:53;;;;;;;6.40;4.25;;;;;;;;;;5053131;28;20036;-72
2023/01/10 08:59:19;;;;;;;6.53;4.55;;;;;;;;;;5053053;28;20029;-73
2023/01/10 09:01:45;;;;;;;10.48;4.90;;;;;;;;;;5060291;28;20055;-73
2023/01/10 09:04:11;;;;;;;7.03;4.63;;;;;;;;;;5073309;28;20052;-73
2023/01/10 09:06:37;;;;;;;6.25;4.20;;;;;;;;;;5072791;28;20024;-72
2023/01/10 09:09:03;;;;;;;7.20;4.10;;;;;;;;;;5054481;28;20063;-72
2023/01/10 09:11:29;;;;;;;6.15;3.78;;;;;;;;;;5073017;28;20086;-73
2023/01/10 09:13:55;;;;;;;4.47;3.25;;;;;;;;;;5072558;28;20025;-76
2023/01/10 09:16:22;;;;;;;6.25;3.30;;;;;;;;;;5073079;28;20078;-76
2023/01/10 09:18:48;;;;;;;5.00;2.58;;;;;;;;;;5072549;28;20033;-77
2023/01/10 09:21:14;;;;;;;6.68;3.05;;;;;;;;;;5072474;28;20032;-75
2023/01/10 09:23:42;;;;;;;6.85;3.25;;;;;;;;;;5072440;28;20021;-75
2023/01/10 09:26:08;;;;;;;5.30;2.50;;;;;;;;;;5069930;28;20055;-75
2023/01/10 09:28:34;;;;;;;7.70;3.08;;;;;;;;;;5055249;28;20044;-78
2023/01/10 09:31:03;;;;;;;6.35;2.85;;;;;;;;;;5077583;28;20044;-77
2023/01/10 09:33:29;;;;;;;4.70;3.05;;;;;;;;;;5072645;28;20017;-78
2023/01/10 09:35:57;;;;;;;6.28;2.83;;;;;;;;;;5047527;28;20071;-77
2023/01/10 09:38:23;;;;;;;5.28;3.03;;;;;;;;;;5037063;28;20049;-75
2023/01/10 09:40:55;;;;;;;5.70;2.85;;;;;;;;;;5067400;28;20052;-76
2023/01/10 09:43:21;;;;;;;5.68;2.58;;;;;;;;;;5059873;28;20085;-75
2023/01/10 09:46:04;;;;;;;7.68;3.63;;;;;;;;;;5070612;28;20024;-75
2023/01/10 09:48:30;;;;;;;4.72;3.47;;;;;;;;;;5053024;28;20017;-76
2023/01/10 09:51:02;;;;;;;5.60;3.40;;;;;;;;;;5050408;28;20021;-76
2023/01/10 09:53:30;;;;;;;6.63;3.30;;;;;;;;;;5050880;28;20021;-76
2023/01/10 09:55:58;;;;;;;12.68;3.97;;;;;;;;;;5036689;28;20345;-75
2023/01/10 09:58:29;;;;;;;8.52;4.05;;;;;;;;;;5059633;28;20452;-75
2023/01/10 10:00:57;;;;;;;10.00;4.75;;;;;;;;;;5064068;28;20100;-76
2023/01/10 10:03:27;;;;;;;6.75;4.50;;;;;;;;;;5063432;28;20100;-75
2023/01/10 10:05:53;;;;;;;7.95;4.25;;;;;;;;;;5062084;28;20028;-74
2023/01/10 10:08:19;;;;;;;8.52;4.32;;;;;;;;;;5054984;28;20056;-76
2023/01/10 10:10:51;;;;;;;7.15;3.90;;;;;;;;;;5055138;28;20016;-76
2023/01/10 10:13:21;;;;;;;7.72;4.18;;;;;;;;;;5054011;28;20116;-76
2023/01/10 10:15:53;;;;;;;4.97;3.95;;;;;;;;;;5071490;28;20070;-75
2023/01/10 10:18:31;;;;;;;8.93;3.50;;;;;;;;;;5071095;28;20063;-74
2023/01/10 10:20:57;;;;;;;5.85;2.97;;;;;;;;;;5053560;28;20023;-75
2023/01/10 10:23:29;;;;;;;8.82;3.38;;;;;;;;;;5071619;28;20035;-75
2023/01/10 10:25:55;;;;;;;5.40;3.10;;;;;;;;;;5070582;28;20429;-75
2023/01/10 10:28:35;;;;;;;8.80;3.40;;;;;;;;;;5067410;28;20017;-75
2023/01/10 10:31:00;;;;;;;6.80;2.35;;;;;;;;;;5071355;28;20035;-76
2023/01/10 10:33:33;;;;;;;8.93;3.25;;;;;;;;;;5071254;28;20025;-76
2023/01/10 10:36:02;;;;;;;9.70;3.25;;;;;;;;;;5051312;28;20013;-74
2023/01/10 10:38:33;;;;;;;7.75;2.80;;;;;;;;;;5065526;28;20036;-75
2023/01/10 10:40:59;;;;;;;10.63;2.42;;;;;;;;;;5071492;28;20020;-75
2023/01/10 10:43:31;;;;;;;8.40;2.50;;;;;;;;;;5071032;28;20502;-76
2023/01/10 10:46:00;;;;;;;7.05;2.20;;;;;;;;;;5071297;28;20028;-75
2023/01/10 10:48:26;;;;;;;5.88;2.17;;;;;;;;;;5071036;28;20119;-76
2023/01/10 10:51:08;;;;;;;8.38;2.55;;;;;;;;;;5071226;28;20503;-74
2023/01/10 10:53:34;;;;;;;6.80;2.10;;;;;;;;;;5070971;28;20028;-76
2023/01/10 10:56:02;;;;;;;5.65;2.00;;;;;;;;;;5071107;28;20027;-75
2023/01/10 10:58:29;;;;;;;6.53;2.35;;;;;;;;;;5070654;28;20035;-75
2023/01/10 11:00:56;;;;;;;8.43;2.30;;;;;;;;;;5071052;28;20031;-76
2023/01/10 11:03:41;;;;;;;7.28;2.72;;;;;;;;;;5053609;28;20074;-76
2023/01/10 11:06:09;;;;;;;7.18;2.33;;;;;;;;;;5071021;28;20052;-75
2023/01/10 11:08:41;;;;;;;9.57;2.67;;;;;;;;;;5068900;28;20033;-76
2023/01/10 11:11:15;;;;;;;8.98;2.70;;;;;;;;;;5044079;28;20231;-76
2023/01/10 11:14:01;;;;;;;9.18;3.05;;;;;;;;;;5046885;28;20383;-77
2023/01/10 11:16:28;;;;;;;8.00;2.45;;;;;;;;;;5031303;28;20028;-75
2023/01/10 11:19:13;;;;;;;7.38;3.15;;;;;;;;;;5032083;28;20017;-76
2023/01/10 11:21:40;;;;;;;7.20;2.80;;;;;;;;;;5051008;28;20486;-76
2023/01/10 11:24:18;;;;;;;9.30;3.08;;;;;;;;;;5051120;28;20055;-76
2023/01/10 11:26:44;;;;;;;8.27;2.88;;;;;;;;;;5070426;28;20505;-75
2023/01/10 11:29:13;;;;;;;10.07;3.10;;;;;;;;;;5070680;28;20086;-76
2023/01/10 11:31:39;;;;;;;8.27;3.15;;;;;;;;;;5070828;28;20027;-76
2023/01/10 11:34:06;;;;;;;7.30;3.30;;;;;;;;;;5070125;28;20060;-76
2023/01/10 11:36:51;;;;;;;7.15;2.95;;;;;;;;;;5050452;28;20035;-74
2023/01/10 11:39:17;;;;;;;9.35;3.17;;;;;;;;;;5030883;28;20053;-74
2023/01/10 11:41:43;;;;;;;7.97;3.00;;;;;;;;;;5049763;28;20546;-73
2023/01/10 11:44:17;;;;;;;13.80;3.60;;;;;;;;;;5049875;28;20100;-73
2023/01/10 11:46:44;;;;;;;7.10;2.85;;;;;;;;;;5051114;28;20109;-72
2023/01/10 11:49:18;;;;;;;14.18;2.92;;;;;;;;;;5057751;28;20024;-74
2023/01/10 11:51:48;;;;;;;10.40;3.33;;;;;;;;;;5074476;28;20059;-73
2023/01/10 11:54:20;;;;;;;6.47;2.90;;;;;;;;;;5074592;28;20107;-74
2023/01/10 11:56:55;;;;;;;10.90;3.15;;;;;;;;;;5074546;28;20100;-73
2023/01/10 11:59:21;;;;;;;10.27;3.17;;;;;;;;;;5074739;28;20024;-74
2023/01/10 12:01:52;;;;;;;10.82;2.95;;;;;;;;;;5068925;28;20021;-75
2023/01/10 12:04:19;;;;;;;7.55;2.97;;;;;;;;;;5054616;28;20025;-75
2023/01/10 12:07:06;;;;;;;11.27;3.17;;;;;;;;;;5036490;28;20025;-75
2023/01/10 12:09:35;;;;;;;9.43;2.83;;;;;;;;;;5053913;28;20128;-73
2023/01/10 12:12:06;;;;;;;8.65;3.45;;;;;;;;;;5036027;28;20079;-74
2023/01/10 12:14:32;;;;;;;7.43;2.50;;;;;;;;;;5053925;28;20037;-76
2023/01/10 12:16:59;;;;;;;12.55;2.80;;;;;;;;;;5035983;28;20029;-74
2023/01/10 12:19:25;;;;;;;9.48;2.85;;;;;;;;;;5053800;28;20032;-74
2023/01/10 12:21:51;;;;;;;9.35;2.63;;;;;;;;;;5053650;28;20498;-74
2023/01/10 12:24:34;;;;;;;8.90;2.80;;;;;;;;;;5034136;28;20055;-75
2023/01/10 12:27:04;;;;;;;7.65;2.65;;;;;;;;;;5051737;28;20502;-74
2023/01/10 12:29:34;;;;;;;8.32;2.35;;;;;;;;;;5051815;28;20037;-76
2023/01/10 12:32:00;;;;;;;9.40;2.40;;;;;;;;;;5052139;28;20027;-75
2023/01/10 12:34:35;;;;;;;12.32;3.22;;;;;;;;;;5051668;28;20031;-74
2023/01/10 12:37:08;;;;;;;6.70;2.67;;;;;;;;;;5052837;28;20589;-74
2023/01/10 12:39:39;;;;;;;13.15;2.95;;;;;;;;;;5053295;28;20032;-75
2023/01/10 12:44:52;;;;;;;6.97;2.42;;;;;;;;;;5051693;28;20365;-76
2023/01/10 12:47:53;;;;;;;9.55;2.28;;;;;;;;;;5051212;28;20044;-74
2023/01/10 12:50:29;;;;;;;9.82;3.08;;;;;;;;;;4970082;28;20425;-74
2023/01/10 12:53:14;;;;;;;5.38;1.92;;;;;;;;;;5040038;28;20043;-74
2023/01/10 12:55:41;;;;;;;15.48;3.60;;;;;;;;;;5033369;28;20399;-75
2023/01/10 12:58:12;;;;;;;11.35;2.80;;;;;;;;;;5034988;28;20050;-75
2023/01/10 13:00:43;;;;;;;12.25;3.45;;;;;;;;;;5053363;28;20364;-73
2023/01/10 13:03:11;;;;;;;8.18;2.00;;;;;;;;;;5053172;28;20021;-74
2023/01/10 13:05:37;;;;;;;8.93;2.75;;;;;;;;;;5053561;28;20028;-74
2023/01/10 13:08:06;;;;;;;8.13;2.65;;;;;;;;;;5051018;28;20029;-72
2023/01/10 13:10:33;;;;;;;10.80;2.50;;;;;;;;;;5051493;28;20025;-74
2023/01/10 13:13:07;;;;;;;13.30;3.08;;;;;;;;;;5052711;28;20033;-74
2023/01/10 13:15:37;;;;;;;6.13;2.70;;;;;;;;;;5053078;28;20498;-72
2023/01/10 13:18:05;;;;;;;5.40;2.00;;;;;;;;;;5052703;28;20100;-75
2023/01/10 13:20:41;;;;;;;5.55;2.63;;;;;;;;;;5052626;28;20032;-74
2023/01/10 13:23:29;;;;;;;11.95;2.63;;;;;;;;;;5052345;28;20425;-75
2023/01/10 13:25:56;;;;;;;9.93;3.47;;;;;;;;;;5052301;28;20017;-77
2023/01/10 13:28:24;;;;;;;7.68;2.90;;;;;;;;;;5053153;28;20025;-76
2023/01/10 13:30:55;;;;;;;8.15;2.40;;;;;;;;;;5052617;28;20055;-75
2023/01/10 13:33:25;;;;;;;8.07;2.65;;;;;;;;;;5052878;28;20124;-75
2023/01/10 13:35:53;;;;;;;7.85;2.03;;;;;;;;;;5052784;28;20067;-75
2023/01/10 13:38:22;;;;;;;10.05;2.88;;;;;;;;;;5052221;28;20331;-75
2023/01/10 13:44:02;;;;;;;7.63;2.85;;;;;;;;;;5052349;28;20044;-75
2023/01/10 13:46:33;;;;;;;4.70;2.10;;;;;;;;;;5052432;28;20032;-74
2023/01/10 13:49:01;;;;;;;;;;;;;;;;;;5052341;28;20427;-75
2023/01/10 13:51:27;;;;;;;15.00;3.63;;;;;;;;;;5052119;28;19905;-73
2023/01/10 13:53:54;;;;;;;10.27;2.15;;;;;;;;;;5052406;28;20057;-74
2023/01/10 13:56:35;;;;;;;10.68;2.85;;;;;;;;;;5052186;28;20025;-74
2023/01/10 14:04:33;;;;;;;11.48;3.45;;;;;;;;;;5052414;28;20119;-74
2023/01/10 14:07:01;;;;;;;5.65;2.03;;;;;;;;;;5033800;28;20021;-73
2023/01/10 14:09:30;;;;;;;8.95;2.83;;;;;;;;;;5053547;28;20025;-74
2023/01/10 14:12:00;;;;;;;6.60;2.55;;;;;;;;;;5052141;28;20090;-75
2023/01/10 14:14:29;;;;;;;11.57;3.03;;;;;;;;;;5051946;28;20025;-73
2023/01/10 14:16:57;;;;;;;8.18;1.90;;;;;;;;;;5051863;28;20059;-75
2023/01/10 14:19:28;;;;;;;7.20;2.40;;;;;;;;;;5051864;28;20450;-73
2023/01/10 14:21:55;;;;;;;7.82;2.08;;;;;;;;;;5051761;28;20025;-74
2023/01/10 14:24:41;;;;;;;7.13;1.95;;;;;;;;;;5051828;28;20067;-74
2023/01/10 14:27:13;;;;;;;9.25;2.10;;;;;;;;;;5051268;28;20083;-73
2023/01/10 14:29:45;;;;;;;7.95;2.40;;;;;;;;;;5052061;28;20032;-75
2023/01/10 14:32:27;;;;;;;13.63;2.97;;;;;;;;;;5045178;28;20112;-74
2023/01/10 14:34:53;;;;;;;13.85;3.50;;;;;;;;;;5035328;28;20029;-74
2023/01/10 14:37:20;;;;;;;11.20;4.22;;;;;;;;;;5049524;28;20033;-76
2023/01/10 14:39:47;;;;;;;15.30;4.47;;;;;;;;;;5071477;28;20036;-74
2023/01/10 14:42:15;;;;;;;7.43;3.40;;;;;;;;;;5065998;28;20029;-74
2023/01/10 14:44:47;;;;;;;10.77;3.92;;;;;;;;;;5061802;28;20029;-74
2023/01/10 14:47:33;;;;;;;9.48;4.38;;;;;;;;;;5050317;28;20096;-75
2023/01/10 14:50:03;;;;;;;7.90;3.88;;;;;;;;;;5050587;28;20031;-76
2023/01/10 14:52:29;;;;;;;10.63;4.22;;;;;;;;;;5050603;28;20064;-76
2023/01/10 14:55:02;;;;;;;14.63;5.18;;;;;;;;;;5050936;28;20444;-75
2023/01/10 14:57:28;;;;;;;10.38;3.13;;;;;;;;;;5051039;28;20112;-74
2023/01/10 15:00:03;;;;;;;9.75;2.85;;;;;;;;;;5051287;28;20048;-74
2023/01/10 15:02:30;;;;;;;7.05;2.85;;;;;;;;;;5051399;28;20448;-73
2023/01/10 15:05:08;;;;;;;8.68;2.75;;;;;;;;;;5051283;28;20079;-74
2023/01/10 15:07:34;;;;;;;10.10;2.67;;;;;;;;;;5050958;28;20033;-74